createdAt,value
2023-02-25T00:01:30.054Z,0.31
2023-02-25T00:03:09.797Z,0.29
2023-02-25T00:04:49.585Z,0.31
2023-02-25T00:06:29.339Z,0.32
2023-02-25T00:08:09.112Z,0.29
2023-02-25T00:09:48.878Z,0.31
2023-02-25T00:11:28.670Z,0.31
2023-02-25T00:13:08.483Z,0.28
2023-02-25T00:14:48.309Z,0.28
2023-02-25T00:16:28.046Z,0.3
2023-02-25T00:18:07.729Z,0.26
2023-02-25T00:19:47.478Z,0.3
2023-02-25T00:21:27.238Z,0.28
2023-02-25T00:23:07.061Z,0.26
2023-02-25T00:24:46.802Z,0.27
2023-02-25T00:26:26.547Z,0.3
2023-02-25T00:28:06.315Z,0.27
2023-02-25T00:29:46.085Z,0.31
2023-02-25T00:31:25.847Z,0.28
2023-02-25T00:33:05.626Z,0.31
2023-02-25T00:34:45.376Z,0.28
2023-02-25T00:36:25.252Z,0.31
2023-02-25T00:38:04.920Z,0.3
2023-02-25T00:39:44.693Z,0.3
2023-02-25T00:41:24.450Z,0.32
2023-02-25T00:43:04.219Z,0.33
2023-02-25T00:44:43.977Z,0.31
2023-02-25T00:46:23.751Z,0.31
2023-02-25T00:48:03.514Z,0.31
2023-02-25T00:49:43.294Z,0.32
2023-02-25T00:51:23.063Z,0.32
2023-02-25T00:53:02.830Z,0.28
2023-02-25T00:54:42.601Z,0.3
2023-02-25T00:56:22.454Z,0.28
2023-02-25T00:58:02.136Z,0.25
2023-02-25T00:59:41.881Z,0.24
2023-02-25T01:01:21.673Z,0.25
2023-02-25T01:03:01.432Z,0.28
2023-02-25T01:04:41.202Z,0.3
2023-02-25T01:06:20.956Z,0.3
2023-02-25T01:08:00.769Z,0.27
2023-02-25T01:09:40.496Z,0.31
2023-02-25T01:11:20.264Z,0.26
2023-02-25T01:13:00.034Z,0.25
2023-02-25T01:14:39.832Z,0.26
2023-02-25T01:16:19.558Z,0.24
2023-02-25T01:17:59.340Z,0.25
2023-02-25T01:19:39.098Z,0.24
2023-02-25T01:21:18.861Z,0.28
2023-02-25T01:22:58.631Z,0.28
2023-02-25T01:24:38.397Z,0.26
2023-02-25T01:26:18.166Z,0.26
2023-02-25T01:27:57.924Z,0.24
2023-02-25T01:29:37.703Z,0.24
2023-02-25T01:31:17.473Z,0.23
2023-02-25T01:32:57.220Z,0.2
2023-02-25T01:34:37.086Z,0.19
2023-02-25T01:36:16.770Z,0.23
2023-02-25T01:37:56.537Z,0.25
2023-02-25T01:39:36.297Z,0.23
2023-02-25T01:41:16.070Z,0.26
2023-02-25T01:42:55.841Z,0.23
2023-02-25T01:44:35.599Z,0.24
2023-02-25T01:46:15.372Z,0.26
2023-02-25T01:47:55.150Z,0.22
2023-02-25T01:49:34.928Z,0.27
2023-02-25T01:51:14.681Z,0.24
2023-02-25T01:52:54.443Z,0.24
2023-02-25T01:54:34.224Z,0.24
2023-02-25T01:56:13.975Z,0.29
2023-02-25T01:57:53.752Z,0.3
2023-02-25T01:59:33.510Z,0.28
2023-02-25T02:01:13.286Z,0.3
2023-02-25T02:02:53.050Z,0.26
2023-02-25T02:04:32.808Z,0.28
2023-02-25T02:06:12.643Z,0.25
2023-02-25T02:07:52.345Z,0.26
2023-02-25T02:09:32.113Z,0.28
2023-02-25T02:11:11.891Z,0.27
2023-02-25T02:12:51.653Z,0.27
2023-02-25T02:14:31.424Z,0.28
2023-02-25T02:16:11.178Z,0.29
2023-02-25T02:17:50.952Z,0.25
2023-02-25T02:19:30.719Z,0.28
2023-02-25T02:21:10.501Z,0.31
2023-02-25T02:22:50.252Z,0.26
2023-02-25T02:24:30.022Z,0.27
2023-02-25T02:26:09.843Z,0.3
2023-02-25T02:27:49.548Z,0.28
2023-02-25T02:29:29.317Z,0.27
2023-02-25T02:31:09.106Z,0.26
2023-02-25T02:32:48.864Z,0.27
2023-02-25T02:34:28.627Z,0.3
2023-02-25T02:36:08.408Z,0.26
2023-02-25T02:37:48.171Z,0.28
2023-02-25T02:39:27.940Z,0.26
2023-02-25T02:41:07.695Z,0.26
2023-02-25T02:42:47.483Z,0.27
2023-02-25T02:44:27.258Z,0.27
2023-02-25T02:46:07.002Z,0.3
2023-02-25T02:47:46.784Z,0.26
2023-02-25T02:49:26.537Z,0.3
2023-02-25T02:51:06.338Z,0.27
2023-02-25T02:52:46.057Z,0.28
2023-02-25T02:54:25.820Z,0.28
2023-02-25T02:56:05.587Z,0.28
2023-02-25T02:57:45.353Z,0.26
2023-02-25T02:59:25.143Z,0.3
2023-02-25T03:01:04.900Z,0.31
2023-02-25T03:02:44.669Z,0.29
2023-02-25T03:04:24.438Z,0.26
2023-02-25T03:06:04.194Z,0.29
2023-02-25T03:07:43.990Z,0.3
2023-02-25T03:09:23.779Z,0.26
2023-02-25T03:11:03.548Z,0.3
2023-02-25T03:12:43.262Z,0.3
2023-02-25T03:14:23.033Z,0.3
2023-02-25T03:16:02.799Z,0.3
2023-02-25T03:17:42.566Z,0.26
2023-02-25T03:19:22.375Z,0.24
2023-02-25T03:21:02.102Z,0.26
2023-02-25T03:22:41.906Z,0.25
2023-02-25T03:24:21.633Z,0.27
2023-02-25T03:26:01.412Z,0.24
2023-02-25T03:27:41.180Z,0.26
2023-02-25T03:29:20.943Z,0.25
2023-02-25T03:31:00.715Z,0.26
2023-02-25T03:32:40.479Z,0.25
2023-02-25T03:34:20.269Z,0.28
2023-02-25T03:36:00.023Z,0.27
2023-02-25T03:37:39.777Z,0.31
2023-02-25T03:39:19.550Z,0.3
2023-02-25T03:40:59.312Z,0.29
2023-02-25T03:42:39.084Z,0.32
2023-02-25T03:44:18.866Z,0.32
2023-02-25T03:45:58.627Z,0.32
2023-02-25T03:47:38.408Z,0.32
2023-02-25T03:49:18.149Z,0.31
2023-02-25T03:50:57.916Z,0.32
2023-02-25T03:52:37.749Z,0.32
2023-02-25T03:54:17.461Z,0.33
2023-02-25T03:55:57.212Z,0.33
2023-02-25T03:57:36.984Z,0.3
2023-02-25T03:59:16.773Z,0.3
2023-02-25T04:00:56.521Z,0.31
2023-02-25T04:02:36.339Z,0.32
2023-02-25T04:04:16.044Z,0.31
2023-02-25T04:05:55.826Z,0.32
2023-02-25T04:07:35.587Z,0.3
2023-02-25T04:09:15.347Z,0.31
2023-02-25T04:10:55.140Z,0.29
2023-02-25T04:12:34.886Z,0.32
2023-02-25T04:14:14.642Z,0.33
2023-02-25T04:15:54.416Z,0.28
2023-02-25T04:17:34.193Z,0.29
2023-02-25T04:19:13.954Z,0.3
2023-02-25T04:20:53.737Z,0.31
2023-02-25T04:22:33.479Z,0.28
2023-02-25T04:24:13.273Z,0.3
2023-02-25T04:25:53.023Z,0.3
2023-02-25T04:27:32.806Z,0.3
2023-02-25T04:29:12.542Z,0.32
2023-02-25T04:30:52.322Z,0.28
2023-02-25T04:32:32.098Z,0.28
2023-02-25T04:34:11.866Z,0.28
2023-02-25T04:35:51.632Z,0.28
2023-02-25T04:37:31.442Z,0.32
2023-02-25T04:39:11.164Z,0.3
2023-02-25T04:40:50.933Z,0.31
2023-02-25T04:42:30.691Z,0.3
2023-02-25T04:44:10.470Z,0.28
2023-02-25T04:45:50.222Z,0.26
2023-02-25T04:47:30.001Z,0.28
2023-02-25T04:49:09.791Z,0.27
2023-02-25T04:50:49.563Z,0.31
2023-02-25T04:52:29.299Z,0.32
2023-02-25T04:54:09.076Z,0.28
2023-02-25T04:55:48.847Z,0.29
2023-02-25T04:57:28.602Z,0.33
2023-02-25T04:59:08.360Z,0.3
2023-02-25T05:00:48.135Z,0.34
2023-02-25T05:02:27.909Z,0.34
2023-02-25T05:04:07.669Z,0.32
2023-02-25T05:05:47.443Z,0.34
2023-02-25T05:07:27.201Z,0.32
2023-02-25T05:09:06.976Z,0.33
2023-02-25T05:10:46.738Z,0.39
2023-02-25T05:12:26.514Z,0.4
2023-02-25T05:14:06.285Z,0.41
2023-02-25T05:15:46.045Z,0.45
2023-02-25T05:17:25.809Z,0.52
2023-02-25T05:19:05.585Z,0.63
2023-02-25T05:20:45.337Z,0.69
2023-02-25T05:22:25.136Z,0.8
2023-02-25T05:24:04.879Z,0.9
2023-02-25T05:25:44.671Z,1.12
2023-02-25T05:27:24.425Z,1.43
2023-02-25T05:29:04.196Z,1.66
2023-02-25T05:30:44.002Z,2.06
2023-02-25T05:32:23.723Z,2.91
2023-02-25T05:34:03.521Z,3.68
2023-02-25T05:35:43.252Z,4.57
2023-02-25T05:37:23.020Z,5.02
2023-02-25T05:39:02.790Z,7.02
2023-02-25T05:40:42.551Z,10.59
2023-02-25T05:42:22.311Z,17.06
2023-02-25T05:44:02.154Z,18.28
2023-02-25T05:45:41.869Z,21.11
2023-02-25T05:47:21.632Z,22.6
2023-02-25T05:49:01.401Z,25.52
2023-02-25T05:50:41.159Z,29.91
2023-02-25T05:52:20.921Z,26.7
2023-02-25T05:54:00.695Z,26.73
2023-02-25T05:55:40.451Z,26.77
2023-02-25T05:57:20.229Z,26.75
2023-02-25T05:59:00.011Z,26.78
2023-02-25T06:00:39.762Z,26.78
2023-02-25T06:02:19.527Z,26.79
2023-02-25T06:03:59.289Z,26.78
2023-02-25T06:05:39.063Z,26.8
2023-02-25T06:07:18.904Z,26.81
2023-02-25T06:08:58.610Z,26.8
2023-02-25T06:10:38.362Z,26.77
2023-02-25T06:12:18.127Z,26.81
2023-02-25T06:13:57.904Z,26.83
2023-02-25T06:15:37.726Z,26.83
2023-02-25T06:17:17.429Z,26.84
2023-02-25T06:18:57.194Z,26.85
2023-02-25T06:20:36.970Z,26.84
2023-02-25T06:22:16.728Z,26.87
2023-02-25T06:23:56.504Z,26.87
2023-02-25T06:25:36.266Z,26.87
2023-02-25T06:27:16.017Z,26.88
2023-02-25T06:28:55.792Z,26.88
2023-02-25T06:30:35.587Z,26.87
2023-02-25T06:32:15.339Z,26.88
2023-02-25T06:33:55.093Z,26.88
2023-02-25T06:35:34.880Z,26.78
2023-02-25T06:37:14.674Z,26.88
2023-02-25T06:38:54.402Z,26.89
2023-02-25T06:40:34.275Z,26.9
2023-02-25T06:42:13.996Z,26.9
2023-02-25T06:43:53.703Z,26.92
2023-02-25T06:45:33.475Z,26.92
2023-02-25T06:47:13.231Z,26.92
2023-02-25T06:48:53.056Z,26.92
2023-02-25T06:50:32.817Z,26.92
2023-02-25T06:52:12.558Z,31.88
2023-02-25T06:53:52.303Z,26.95
2023-02-25T06:55:32.081Z,26.95
2023-02-25T06:57:11.838Z,26.95
2023-02-25T06:58:51.625Z,26.96
2023-02-25T07:00:31.375Z,26.84
2023-02-25T07:02:11.137Z,26.96
2023-02-25T07:03:50.958Z,27.03
2023-02-25T07:05:30.669Z,27.03
2023-02-25T07:07:10.478Z,27.04
2023-02-25T07:08:50.243Z,27.05
2023-02-25T07:10:29.985Z,27.05
2023-02-25T07:12:09.742Z,27.08
2023-02-25T07:13:49.536Z,27.08
2023-02-25T07:15:29.291Z,27.1
2023-02-25T07:17:09.118Z,27.16
2023-02-25T07:18:48.835Z,27.16
2023-02-25T07:20:28.576Z,27.17
2023-02-25T07:22:08.365Z,27.24
2023-02-25T07:23:48.127Z,27.31
2023-02-25T07:25:27.897Z,27.26
2023-02-25T07:27:07.666Z,27.39
2023-02-25T07:28:47.468Z,27.46
2023-02-25T07:30:27.258Z,27.53
2023-02-25T07:32:07.096Z,27.61
2023-02-25T07:33:46.806Z,27.71
2023-02-25T07:35:26.516Z,27.85
2023-02-25T07:37:06.302Z,27.97
2023-02-25T07:38:46.079Z,28.03
2023-02-25T07:40:25.856Z,28.06
2023-02-25T07:42:05.597Z,28.14
2023-02-25T07:43:45.373Z,28.22
2023-02-25T07:45:25.154Z,28.3
2023-02-25T07:47:04.930Z,28.42
2023-02-25T07:48:44.701Z,28.53
2023-02-25T07:50:24.463Z,28.61
2023-02-25T07:52:04.221Z,87.33
2023-02-25T07:53:43.990Z,75.55
2023-02-25T07:55:23.791Z,77.32
2023-02-25T07:57:03.556Z,77.39
2023-02-25T07:58:43.302Z,74.33
2023-02-25T08:00:23.077Z,75.42
2023-02-25T08:02:02.898Z,81.56
2023-02-25T08:03:42.618Z,83.92
2023-02-25T08:05:22.464Z,85.49
2023-02-25T08:07:02.268Z,85.25
2023-02-25T08:08:41.967Z,86.14
2023-02-25T08:10:21.710Z,86.25
2023-02-25T08:12:01.557Z,86.44
2023-02-25T08:13:41.235Z,87.26
2023-02-25T08:15:21.141Z,86.25
2023-02-25T08:17:00.793Z,85.23
2023-02-25T08:18:40.560Z,84.51
2023-02-25T08:20:20.319Z,84.45
2023-02-25T08:22:00.110Z,85.73
2023-02-25T08:23:39.871Z,87.27
2023-02-25T08:25:19.659Z,86.54
2023-02-25T08:26:59.453Z,85.9
2023-02-25T08:28:39.192Z,86.44
2023-02-25T08:30:18.953Z,85.55
2023-02-25T08:31:58.715Z,83.55
2023-02-25T08:33:38.498Z,82.99
2023-02-25T08:35:18.271Z,81.82
2023-02-25T08:36:58.052Z,84.65
2023-02-25T08:38:37.876Z,83.39
2023-02-25T08:40:17.560Z,85.49
2023-02-25T08:41:57.382Z,85.23
2023-02-25T08:43:37.097Z,84.57
2023-02-25T08:45:16.893Z,86.62
2023-02-25T08:46:56.654Z,85.36
2023-02-25T08:48:36.442Z,84.92
2023-02-25T08:50:16.201Z,84.94
2023-02-25T08:51:55.958Z,84.15
2023-02-25T08:53:35.750Z,84.3
2023-02-25T08:55:15.503Z,84.48
2023-02-25T08:56:55.267Z,86.03
2023-02-25T08:58:35.088Z,85.76
2023-02-25T09:00:14.804Z,86.03
2023-02-25T09:01:54.586Z,86.92
2023-02-25T09:03:34.352Z,86.79
2023-02-25T09:05:14.127Z,86.49
2023-02-25T09:06:53.889Z,85.43
2023-02-25T09:08:33.655Z,84.92
2023-02-25T09:10:13.422Z,85.91
2023-02-25T09:11:53.193Z,85.1
2023-02-25T09:13:32.966Z,85.11
2023-02-25T09:15:12.741Z,83.33
2023-02-25T09:16:52.529Z,84.24
2023-02-25T09:18:32.278Z,85.18
2023-02-25T09:20:12.049Z,85.61
2023-02-25T09:21:51.818Z,85.06
2023-02-25T09:23:31.605Z,85.11
2023-02-25T09:25:11.403Z,84.52
2023-02-25T09:26:51.134Z,84.3
2023-02-25T09:28:30.902Z,82.34
2023-02-25T09:30:10.774Z,85.37
2023-02-25T09:31:50.447Z,85.46
2023-02-25T09:33:30.196Z,85.45
2023-02-25T09:35:10.011Z,86.65
2023-02-25T09:36:49.766Z,86.09
2023-02-25T09:38:29.517Z,85.47
2023-02-25T09:40:09.284Z,86.78
2023-02-25T09:41:49.059Z,87.2
2023-02-25T09:43:28.828Z,87.31
2023-02-25T09:45:08.602Z,87.99
2023-02-25T09:46:48.367Z,88.12
2023-02-25T09:48:28.145Z,87.67
2023-02-25T09:50:07.907Z,88.24
2023-02-25T09:51:47.694Z,88.14
2023-02-25T09:53:27.583Z,87.52
2023-02-25T09:55:07.234Z,87.63
2023-02-25T09:56:47.017Z,87.87
2023-02-25T09:58:26.789Z,86.93
2023-02-25T10:00:06.541Z,88.09
2023-02-25T10:01:46.309Z,88.49
2023-02-25T10:03:26.087Z,87.95
2023-02-25T10:05:05.858Z,88.31
2023-02-25T10:06:45.620Z,88.1
2023-02-25T10:08:25.389Z,87.83
2023-02-25T10:10:05.178Z,87.76
2023-02-25T10:11:44.927Z,87.95
2023-02-25T10:13:24.699Z,88.59
2023-02-25T10:15:04.475Z,88.61
2023-02-25T10:16:44.277Z,88.76
2023-02-25T10:18:24.015Z,88.19
2023-02-25T10:20:03.844Z,87.12
2023-02-25T10:21:43.555Z,86.91
2023-02-25T10:23:23.316Z,87.78
2023-02-25T10:25:03.192Z,88.52
2023-02-25T10:26:42.998Z,89.08
2023-02-25T10:28:22.675Z,89.16
2023-02-25T10:30:02.528Z,88.76
2023-02-25T10:31:42.228Z,88.5
2023-02-25T10:33:21.943Z,88.32
2023-02-25T10:35:01.713Z,88.37
2023-02-25T10:36:41.486Z,88.84
2023-02-25T10:38:21.264Z,88.63
2023-02-25T10:40:01.025Z,87.4
2023-02-25T10:41:40.788Z,81.94
2023-02-25T10:43:20.564Z,84.01
2023-02-25T10:45:00.350Z,88.08
2023-02-25T10:46:40.113Z,89.1
2023-02-25T10:48:19.864Z,89.19
2023-02-25T10:49:59.645Z,89.2
2023-02-25T10:51:39.414Z,88.91
2023-02-25T10:53:19.240Z,88.17
2023-02-25T10:54:59.118Z,88.18
2023-02-25T10:56:38.921Z,84.8
2023-02-25T10:58:18.671Z,86.35
2023-02-25T10:59:58.439Z,87.99
2023-02-25T11:01:38.216Z,89.97
2023-02-25T11:03:17.944Z,89.96
2023-02-25T11:04:57.691Z,90.8
2023-02-25T11:06:37.480Z,90.7
2023-02-25T11:08:17.279Z,90.22
2023-02-25T11:09:57.009Z,90.33
2023-02-25T11:11:36.804Z,90.43
2023-02-25T11:13:16.429Z,90.58
2023-02-25T11:14:56.332Z,90.61
2023-02-25T11:16:36.081Z,90.36
2023-02-25T11:18:15.810Z,90.18
2023-02-25T11:19:55.664Z,89.93
2023-02-25T11:21:35.459Z,89.77
2023-02-25T11:23:15.066Z,90.16
2023-02-25T11:24:54.955Z,90.15
2023-02-25T11:26:34.681Z,89.21
2023-02-25T11:28:14.498Z,88.42
2023-02-25T11:29:54.194Z,88.16
2023-02-25T11:31:34.051Z,88.67
2023-02-25T11:33:13.794Z,88.33
2023-02-25T11:34:53.616Z,88.2
2023-02-25T11:36:33.217Z,88.05
2023-02-25T11:38:13.065Z,88.25
2023-02-25T11:39:52.926Z,86.52
2023-02-25T11:41:32.643Z,85.69
2023-02-25T11:43:12.286Z,87.81
2023-02-25T11:44:52.083Z,89.24
2023-02-25T11:46:31.985Z,89.96
2023-02-25T11:48:11.722Z,90.27
2023-02-25T11:49:51.428Z,90.37
2023-02-25T11:51:31.132Z,90.51
2023-02-25T11:53:11.066Z,90.45
2023-02-25T11:54:50.825Z,90.44
2023-02-25T11:56:30.503Z,89.97
2023-02-25T11:58:10.289Z,89.61
2023-02-25T11:59:49.985Z,89.45
2023-02-25T12:01:29.863Z,89.19
2023-02-25T12:03:09.562Z,89.38
2023-02-25T12:04:49.331Z,89.33
2023-02-25T12:06:29.075Z,88.92
2023-02-25T12:08:08.842Z,88.75
2023-02-25T12:09:48.607Z,89.27
2023-02-25T12:11:28.550Z,89.43
2023-02-25T12:13:08.144Z,89.16
2023-02-25T12:14:47.910Z,89.01
2023-02-25T12:16:27.818Z,88.54
2023-02-25T12:18:07.628Z,87.35
2023-02-25T12:19:47.371Z,86.74
2023-02-25T12:21:26.995Z,87.02
2023-02-25T12:23:06.834Z,87.45
2023-02-25T12:24:46.547Z,86.76
2023-02-25T12:26:26.360Z,88.81
2023-02-25T12:28:06.181Z,88.38
2023-02-25T12:29:45.861Z,88.82
2023-02-25T12:31:25.620Z,88.95
2023-02-25T12:33:05.443Z,89.25
2023-02-25T12:34:45.214Z,89.33
2023-02-25T12:36:24.928Z,87.54
2023-02-25T12:38:04.773Z,85.84
2023-02-25T12:39:44.473Z,85.73
2023-02-25T12:41:24.276Z,86.6
2023-02-25T12:43:04.029Z,88.27
2023-02-25T12:44:43.784Z,89.44
2023-02-25T12:46:23.543Z,89.32
2023-02-25T12:48:03.325Z,88.93
2023-02-25T12:49:43.085Z,88.5
2023-02-25T12:51:22.862Z,87.45
2023-02-25T12:53:02.630Z,87.2
2023-02-25T12:54:42.399Z,87.65
2023-02-25T12:56:22.184Z,87.88
2023-02-25T12:58:01.934Z,87.61
2023-02-25T12:59:41.718Z,88.98
2023-02-25T13:01:21.485Z,89.79
2023-02-25T13:03:01.291Z,89.96
2023-02-25T13:04:41.016Z,89.5
2023-02-25T13:06:20.803Z,89.03
2023-02-25T13:08:00.561Z,88.65
2023-02-25T13:09:40.329Z,88.4
2023-02-25T13:11:20.122Z,88.57
2023-02-25T13:12:59.884Z,88.77
2023-02-25T13:14:39.666Z,88.77
2023-02-25T13:16:19.409Z,88.92
2023-02-25T13:17:59.182Z,87.99
2023-02-25T13:19:38.948Z,86.34
2023-02-25T13:21:18.724Z,84.32
2023-02-25T13:22:58.487Z,87.73
2023-02-25T13:24:38.275Z,89.12
2023-02-25T13:26:18.030Z,88.41
2023-02-25T13:27:57.811Z,88.14
2023-02-25T13:29:37.634Z,88.62
2023-02-25T13:31:17.387Z,88.93
2023-02-25T13:32:57.190Z,88.88
2023-02-25T13:34:36.878Z,87.18
2023-02-25T13:36:16.650Z,85.02
2023-02-25T13:37:56.420Z,83.21
2023-02-25T13:39:36.189Z,87.42
2023-02-25T13:41:15.955Z,89.18
2023-02-25T13:42:55.746Z,89.62
2023-02-25T13:44:35.499Z,89.56
2023-02-25T13:46:15.286Z,89.45
2023-02-25T13:47:55.038Z,89.55
2023-02-25T13:49:34.821Z,89.79
2023-02-25T13:51:14.579Z,89.76
2023-02-25T13:52:54.415Z,89.83
2023-02-25T13:54:34.144Z,89.54
2023-02-25T13:56:13.888Z,88.78
2023-02-25T13:57:53.685Z,88.45
2023-02-25T13:59:33.422Z,88.68
2023-02-25T14:01:13.261Z,88.25
2023-02-25T14:02:52.989Z,89.61
2023-02-25T14:04:32.739Z,90.29
2023-02-25T14:06:12.512Z,90.27
2023-02-25T14:07:52.297Z,90.25
2023-02-25T14:09:32.053Z,90.28
2023-02-25T14:11:11.835Z,89.47
2023-02-25T14:12:51.587Z,88.2
2023-02-25T14:14:31.363Z,88.52
2023-02-25T14:16:11.124Z,89.1
2023-02-25T14:17:50.902Z,89.44
2023-02-25T14:19:30.678Z,88.99
2023-02-25T14:21:10.440Z,88
2023-02-25T14:22:50.274Z,86.91
2023-02-25T14:24:29.982Z,85.68
2023-02-25T14:26:09.746Z,85.1
2023-02-25T14:27:49.542Z,86.94
2023-02-25T14:29:29.350Z,88.06
2023-02-25T14:31:09.051Z,87.67
2023-02-25T14:32:48.914Z,89.11
2023-02-25T14:34:28.713Z,89.19
2023-02-25T14:36:08.401Z,88.77
2023-02-25T14:37:48.214Z,88.43
2023-02-25T14:39:27.905Z,88.17
2023-02-25T14:41:07.669Z,87.77
2023-02-25T14:42:47.442Z,87.67
2023-02-25T14:44:27.218Z,87.63
2023-02-25T14:46:07.069Z,87.59
2023-02-25T14:47:46.760Z,87.24
2023-02-25T14:49:26.521Z,87.15
2023-02-25T14:51:06.357Z,87.2
2023-02-25T14:52:46.063Z,87.08
2023-02-25T14:54:26.027Z,87.13
2023-02-25T14:56:05.640Z,86.82
2023-02-25T14:57:45.549Z,86.76
2023-02-25T14:59:25.183Z,86.57
2023-02-25T15:01:04.988Z,86.33
2023-02-25T15:02:44.784Z,85.96
2023-02-25T15:04:24.456Z,85.77
2023-02-25T15:06:04.272Z,85.45
2023-02-25T15:07:44.017Z,85.64
2023-02-25T15:09:23.777Z,85.8
2023-02-25T15:11:03.533Z,85.64
2023-02-25T15:12:43.308Z,85.42
2023-02-25T15:14:23.084Z,85.45
2023-02-25T15:16:02.880Z,85.64
2023-02-25T15:17:42.682Z,85.87
2023-02-25T15:19:22.530Z,85.9
2023-02-25T15:21:02.227Z,85.69
2023-02-25T15:22:41.932Z,85.63
2023-02-25T15:24:21.699Z,85.59
2023-02-25T15:26:01.533Z,85.32
2023-02-25T15:27:41.239Z,85.06
2023-02-25T15:29:21.012Z,84.55
2023-02-25T15:31:00.774Z,84.09
2023-02-25T15:32:40.568Z,83.71
2023-02-25T15:34:20.334Z,83
2023-02-25T15:36:00.108Z,82
2023-02-25T15:37:39.930Z,81.25
2023-02-25T15:39:19.778Z,80.49
2023-02-25T15:40:59.405Z,78.97
2023-02-25T15:42:39.170Z,77.97
2023-02-25T15:44:18.950Z,74.26
2023-02-25T15:45:58.702Z,68.1
2023-02-25T15:47:38.538Z,55.91
2023-02-25T15:49:18.247Z,45.91
2023-02-25T15:50:58.013Z,39.82
2023-02-25T15:52:37.801Z,38.09
2023-02-25T15:54:17.584Z,37.13
2023-02-25T15:55:57.320Z,36.78
2023-02-25T15:57:37.106Z,37.43
2023-02-25T15:59:16.882Z,34.08
2023-02-25T16:00:56.639Z,30.61
2023-02-25T16:02:36.503Z,28.86
2023-02-25T16:04:16.278Z,28.81
2023-02-25T16:05:55.943Z,28.75
2023-02-25T16:07:35.714Z,28.7
2023-02-25T16:09:15.494Z,28.65
2023-02-25T16:10:55.250Z,28.63
2023-02-25T16:12:35.028Z,28.59
2023-02-25T16:14:14.798Z,28.54
2023-02-25T16:15:54.567Z,33.98
2023-02-25T16:17:34.337Z,28.9
2023-02-25T16:19:14.093Z,28.42
2023-02-25T16:20:53.870Z,28.4
2023-02-25T16:22:33.639Z,28.37
2023-02-25T16:24:13.406Z,28.34
2023-02-25T16:25:53.185Z,28.3
2023-02-25T16:27:32.941Z,28.26
2023-02-25T16:29:12.709Z,28.08
2023-02-25T16:30:52.472Z,28.22
2023-02-25T16:32:32.246Z,28.18
2023-02-25T16:34:12.007Z,28.16
2023-02-25T16:35:51.783Z,28.13
2023-02-25T16:37:31.554Z,28.1
2023-02-25T16:39:11.316Z,28.07
2023-02-25T16:40:51.101Z,28.02
2023-02-25T16:42:30.862Z,28
2023-02-25T16:44:10.621Z,27.95
2023-02-25T16:45:50.387Z,27.92
2023-02-25T16:47:30.140Z,27.88
2023-02-25T16:49:10.106Z,27.78
2023-02-25T16:50:49.683Z,27.74
2023-02-25T16:52:29.447Z,27.69
2023-02-25T16:54:09.233Z,27.46
2023-02-25T16:55:49.065Z,27.65
2023-02-25T16:57:28.890Z,26.23
2023-02-25T16:59:08.534Z,24.37
2023-02-25T17:00:48.286Z,20.04
2023-02-25T17:02:28.061Z,15.65
2023-02-25T17:04:07.834Z,14.11
2023-02-25T17:05:47.604Z,10.51
2023-02-25T17:07:27.398Z,7.72
2023-02-25T17:09:07.204Z,5.85
2023-02-25T17:10:46.897Z,4.52
2023-02-25T17:12:26.658Z,3.49
2023-02-25T17:14:06.486Z,2.68
2023-02-25T17:15:46.191Z,2.09
2023-02-25T17:17:25.978Z,1.64
2023-02-25T17:19:05.867Z,1.35
2023-02-25T17:20:45.509Z,1.1
2023-02-25T17:22:25.299Z,0.94
2023-02-25T17:24:05.042Z,0.75
2023-02-25T17:25:44.833Z,0.7
2023-02-25T17:27:24.649Z,0.62
2023-02-25T17:29:04.359Z,0.5
2023-02-25T17:30:44.224Z,0.48
2023-02-25T17:32:23.919Z,0.42
2023-02-25T17:34:03.657Z,0.37
2023-02-25T17:35:43.398Z,0.35
2023-02-25T17:37:23.187Z,0.35
2023-02-25T17:39:03.038Z,0.36
2023-02-25T17:40:42.708Z,0.32
2023-02-25T17:42:22.481Z,0.3
2023-02-25T17:44:02.292Z,0.33
2023-02-25T17:45:42.036Z,0.32
2023-02-25T17:47:21.790Z,0.28
2023-02-25T17:49:01.569Z,0.3
2023-02-25T17:50:41.312Z,0.3
2023-02-25T17:52:21.093Z,0.31
2023-02-25T17:54:00.848Z,0.27
2023-02-25T17:55:40.758Z,0.26
2023-02-25T17:57:20.472Z,0.27
2023-02-25T17:59:00.142Z,0.28
2023-02-25T18:00:39.923Z,0.29
2023-02-25T18:02:19.677Z,0.29
2023-02-25T18:03:59.445Z,0.28
2023-02-25T18:05:39.225Z,0.29
2023-02-25T18:07:18.990Z,0.28
2023-02-25T18:08:58.799Z,0.24
2023-02-25T18:10:38.569Z,0.26
2023-02-25T18:12:18.384Z,0.23
2023-02-25T18:13:58.215Z,0.24
2023-02-25T18:15:37.829Z,0.23
2023-02-25T18:17:17.687Z,0.23
2023-02-25T18:18:57.360Z,0.24
2023-02-25T18:20:37.344Z,0.22
2023-02-25T18:22:16.898Z,0.27
2023-02-25T18:23:56.775Z,0.23
2023-02-25T18:25:36.502Z,0.27
2023-02-25T18:27:16.201Z,0.23
2023-02-25T18:28:56.101Z,0.24
2023-02-25T18:30:35.715Z,0.23
2023-02-25T18:32:15.637Z,0.26
2023-02-25T18:33:55.252Z,0.23
2023-02-25T18:35:35.091Z,0.24
2023-02-25T18:37:14.791Z,0.21
2023-02-25T18:38:54.642Z,0.23
2023-02-25T18:40:34.372Z,0.23
2023-02-25T18:42:14.078Z,0.24
2023-02-25T18:43:53.974Z,0.21
2023-02-25T18:45:33.630Z,0.22
2023-02-25T18:47:13.392Z,0.21
2023-02-25T18:48:53.197Z,0.21
2023-02-25T18:50:32.922Z,0.23
2023-02-25T18:52:12.686Z,0.25
2023-02-25T18:53:52.450Z,0.25
2023-02-25T18:55:32.227Z,0.22
2023-02-25T18:57:12.025Z,0.24
2023-02-25T18:58:51.751Z,0.22
2023-02-25T19:00:31.538Z,0.25
2023-02-25T19:02:11.290Z,0.25
2023-02-25T19:03:51.072Z,0.23
2023-02-25T19:05:30.833Z,0.24
2023-02-25T19:07:10.709Z,0.22
2023-02-25T19:08:50.383Z,0.21
2023-02-25T19:10:30.195Z,0.21
2023-02-25T19:12:09.926Z,0.22
2023-02-25T19:13:49.699Z,0.23
2023-02-25T19:15:29.546Z,0.19
2023-02-25T19:17:09.210Z,0.23
2023-02-25T19:18:49.119Z,0.2
2023-02-25T19:20:28.760Z,0.23
2023-02-25T19:22:08.514Z,0.21
2023-02-25T19:23:48.316Z,0.23
2023-02-25T19:25:28.046Z,0.21
2023-02-25T19:27:07.809Z,0.23
2023-02-25T19:28:47.695Z,0.23
2023-02-25T19:30:27.432Z,0.21
2023-02-25T19:32:07.137Z,0.23
2023-02-25T19:33:46.880Z,0.21
2023-02-25T19:35:26.788Z,0.2
2023-02-25T19:37:06.549Z,0.23
2023-02-25T19:38:46.189Z,0.21
2023-02-25T19:40:26.122Z,0.23
2023-02-25T19:42:05.842Z,0.19
2023-02-25T19:43:45.658Z,0.23
2023-02-25T19:45:25.337Z,0.21
2023-02-25T19:47:05.082Z,0.21
2023-02-25T19:48:44.898Z,0.19
2023-02-25T19:50:24.579Z,0.2
2023-02-25T19:52:04.391Z,0.2
2023-02-25T19:53:44.188Z,0.21
2023-02-25T19:55:23.845Z,0.19
2023-02-25T19:57:03.700Z,0.22
2023-02-25T19:58:43.511Z,0.2
2023-02-25T20:00:23.182Z,0.23
2023-02-25T20:02:02.909Z,0.23
2023-02-25T20:03:42.800Z,0.24
2023-02-25T20:05:22.545Z,0.23
2023-02-25T20:07:02.300Z,0.2
2023-02-25T20:08:42.141Z,0.2
2023-02-25T20:10:21.842Z,0.2
2023-02-25T20:12:01.645Z,0.23
2023-02-25T20:13:41.405Z,0.2
2023-02-25T20:15:21.214Z,0.2
2023-02-25T20:17:00.860Z,0.24
2023-02-25T20:18:40.752Z,0.24
2023-02-25T20:20:20.369Z,0.21
2023-02-25T20:22:00.225Z,0.23
2023-02-25T20:23:40.025Z,0.21
2023-02-25T20:25:19.753Z,0.23
2023-02-25T20:26:59.580Z,0.23
2023-02-25T20:28:39.209Z,0.21
2023-02-25T20:30:19.061Z,0.23
2023-02-25T20:31:58.734Z,0.22
2023-02-25T20:33:38.520Z,0.24
2023-02-25T20:35:18.304Z,0.21
2023-02-25T20:36:58.171Z,0.23
2023-02-25T20:38:37.811Z,0.27
2023-02-25T20:40:17.711Z,0.26
2023-02-25T20:41:57.363Z,0.24
2023-02-25T20:43:37.202Z,0.22
2023-02-25T20:45:16.863Z,0.19
2023-02-25T20:46:56.641Z,0.22
2023-02-25T20:48:36.400Z,0.2
2023-02-25T20:50:16.164Z,0.23
2023-02-25T20:51:55.940Z,0.21
2023-02-25T20:53:35.853Z,0.21
2023-02-25T20:55:15.492Z,0.21
2023-02-25T20:56:55.240Z,0.21
2023-02-25T20:58:35.005Z,0.2
2023-02-25T21:00:14.788Z,0.21
2023-02-25T21:01:54.535Z,0.2
2023-02-25T21:03:34.300Z,0.19
2023-02-25T21:05:14.060Z,0.21
2023-02-25T21:06:53.891Z,0.21
2023-02-25T21:08:33.605Z,0.19
2023-02-25T21:10:13.366Z,0.19
2023-02-25T21:11:53.138Z,0.23
2023-02-25T21:13:32.919Z,0.18
2023-02-25T21:15:12.685Z,0.22
2023-02-25T21:16:52.429Z,0.22
2023-02-25T21:18:32.207Z,0.22
2023-02-25T21:20:11.965Z,0.21
2023-02-25T21:21:51.761Z,0.21
2023-02-25T21:23:31.506Z,0.23
2023-02-25T21:25:11.269Z,0.19
2023-02-25T21:26:51.047Z,0.23
2023-02-25T21:28:30.840Z,0.2
2023-02-25T21:30:10.565Z,0.23
2023-02-25T21:31:50.404Z,0.2
2023-02-25T21:33:30.108Z,0.2
2023-02-25T21:35:09.898Z,0.2
2023-02-25T21:36:49.644Z,0.23
2023-02-25T21:38:29.420Z,0.21
2023-02-25T21:40:09.183Z,0.2
2023-02-25T21:41:48.949Z,0.2
2023-02-25T21:43:28.717Z,0.22
2023-02-25T21:45:08.476Z,0.23
2023-02-25T21:46:48.247Z,0.22
2023-02-25T21:48:28.019Z,0.22
2023-02-25T21:50:07.784Z,0.2
2023-02-25T21:51:47.601Z,0.21